Time;durP1;ratioP1;P1;durP2;ratioP2;P2;SDS_P1;SDS_P2;PMS_P1;PMS_P2;Temp;Humidity;BMP_temperature;BMP_pressure;BME280_temperature;BME280_humidity;BME280_pressure;Samples;Min_cycle;Max_cycle;Signal;HPM_P1;HPM_P2
2021/05/31 00:00:45;;;;;;;;;;;28.50;93.70;;;;;;1881038;76;20197;-91
2021/05/31 00:03:32;;;;;;;;;;;28.50;93.50;;;;;;1883823;76;20447;-91
2021/05/31 00:05:54;;;;;;;;;;;28.50;93.60;;;;;;1916221;74;20261;-91
2021/05/31 00:08:25;;;;;;;;;;;28.50;93.60;;;;;;1919717;75;21096;-89
2021/05/31 00:11:09;;;;;;;;;;;28.50;93.50;;;;;;1908650;74;20217;-92
2021/05/31 00:14:40;;;;;;;;;;;28.50;93.60;;;;;;1885548;74;20157;-91
2021/05/31 00:16:43;;;;;;;;;;;28.60;93.80;;;;;;1906743;74;20145;-92
2021/05/31 00:19:43;;;;;;;;;;;28.60;93.70;;;;;;1811124;78;20282;-92
2021/05/31 00:22:18;;;;;;;;;;;28.70;93.60;;;;;;1813035;79;20503;-91
2021/05/31 00:25:08;;;;;;;;;;;28.80;93.30;;;;;;1812404;79;20287;-91
2021/05/31 00:27:49;;;;;;;;;;;28.80;93.10;;;;;;1813600;78;20174;-92
2021/05/31 00:30:25;;;;;;;;;;;28.90;93.20;;;;;;1814416;78;20138;-92
2021/05/31 00:32:55;;;;;;;;;;;28.90;93.10;;;;;;1813328;78;20257;-91
2021/05/31 00:35:30;;;;;;;;;;;28.90;92.80;;;;;;1810423;78;20159;-90
2021/05/31 00:38:00;;;;;;;;;;;28.90;93.00;;;;;;1778308;80;20530;-92
2021/05/31 00:40:30;;;;;;;;;;;29.00;92.90;;;;;;1782409;79;20167;-91
2021/05/31 00:43:00;;;;;;;;;;;29.10;92.70;;;;;;1785644;80;20322;-91
2021/05/31 00:45:33;;;;;;;;;;;29.10;92.70;;;;;;1784559;79;20232;-92
2021/05/31 00:48:03;;;;;;;;;;;29.20;92.70;;;;;;1795269;79;21039;-91
2021/05/31 00:50:33;;;;;;;;;;;29.30;92.70;;;;;;1797510;79;20235;-91
2021/05/31 00:53:03;;;;;;;;;;;29.30;92.40;;;;;;1802485;79;20551;-91
2021/05/31 00:55:39;;;;;;;;;;;29.40;92.30;;;;;;1799221;77;20274;-92
2021/05/31 00:58:09;;;;;;;;;;;29.40;92.20;;;;;;1860152;77;20242;-91
2021/05/31 01:00:39;;;;;;;;;;;29.50;92.00;;;;;;1885770;75;20243;-93
2021/05/31 01:03:09;;;;;;;;;;;29.60;92.00;;;;;;1887412;76;20192;-90
2021/05/31 01:05:48;;;;;;;;;;;29.60;91.90;;;;;;1883030;75;20128;-92
2021/05/31 01:08:16;;;;;;;;;;;29.70;91.70;;;;;;1881659;76;20185;-91
2021/05/31 01:10:47;;;;;;;;;;;29.80;91.40;;;;;;1886211;75;20244;-91
2021/05/31 01:13:18;;;;;;;;;;;29.80;91.30;;;;;;1847147;76;20259;-92
2021/05/31 01:15:50;;;;;;;;;;;29.90;91.30;;;;;;1851822;77;20214;-91
2021/05/31 01:18:21;;;;;;;;;;;30.00;91.60;;;;;;1863095;77;20192;-91
2021/05/31 01:20:52;;;;;;;;;;;30.10;91.50;;;;;;1861773;76;20245;-91
2021/05/31 01:23:23;;;;;;;;;;;30.20;91.20;;;;;;1818699;77;20175;-92
2021/05/31 01:25:55;;;;;;;;;;;30.30;91.10;;;;;;1884329;76;20200;-91
2021/05/31 01:28:31;;;;;;;;;;;30.40;90.30;;;;;;1885046;76;20203;-91
2021/05/31 01:31:02;;;;;;;;;;;30.50;90.70;;;;;;1865990;76;20191;-92
2021/05/31 01:33:34;;;;;;;;;;;30.60;90.10;;;;;;1878562;76;20259;-92
2021/05/31 01:36:05;;;;;;;;;;;30.70;90.10;;;;;;1890447;76;20193;-94
2021/05/31 01:38:43;;;;;;;;;;;30.80;90.00;;;;;;1888242;76;20244;-91
2021/05/31 01:41:11;;;;;;;;;;;30.90;89.70;;;;;;1880004;74;20471;-92
2021/05/31 01:43:44;;;;;;;;;;;31.00;88.40;;;;;;1881012;75;20124;-92
2021/05/31 01:46:14;;;;;;;;;;;31.10;87.90;;;;;;1880028;76;20596;-92
2021/05/31 01:48:44;;;;;;;;;;;31.20;87.80;;;;;;1887678;75;20181;-91
2021/05/31 01:51:18;;;;;;;;;;;31.30;86.90;;;;;;1908363;74;20662;-92
2021/05/31 01:53:48;;;;;;;;;;;31.40;86.80;;;;;;1914426;74;20162;-91
2021/05/31 01:56:19;;;;;;;;;;;31.40;85.60;;;;;;1909348;75;20243;-92
2021/05/31 01:58:51;;;;;;;;;;;31.50;85.40;;;;;;1905152;75;20162;-92
2021/05/31 02:01:21;;;;;;;;;;;31.60;84.90;;;;;;1871384;76;20173;-92
2021/05/31 02:03:51;;;;;;;;;;;31.70;85.10;;;;;;1858794;77;20513;-92
2021/05/31 02:06:20;;;;;;;;;;;31.80;84.90;;;;;;1871597;76;20224;-91
2021/05/31 02:08:50;;;;;;;;;;;32.00;84.80;;;;;;1893700;74;20254;-91
2021/05/31 02:11:21;;;;;;;;;;;32.00;83.10;;;;;;1916778;73;20661;-92
2021/05/31 02:13:58;;;;;;;;;;;32.20;82.40;;;;;;1905157;74;20208;-92
2021/05/31 02:16:29;;;;;;;;;;;32.20;82.40;;;;;;1903186;74;20227;-92
2021/05/31 02:19:02;;;;;;;;;;;32.30;82.40;;;;;;1872937;75;20602;-92
2021/05/31 02:21:35;;;;;;;;;;;32.30;82.10;;;;;;1876334;75;20969;-91
2021/05/31 02:24:06;;;;;;;;;;;32.40;83.00;;;;;;1908944;74;20126;-91
2021/05/31 02:26:37;;;;;;;;;;;32.40;82.20;;;;;;1909601;75;20167;-91
2021/05/31 02:29:10;;;;;;;;;;;32.40;82.50;;;;;;1910211;73;20300;-92
2021/05/31 02:31:40;;;;;;;;;;;32.60;82.40;;;;;;1905454;73;20205;-91
2021/05/31 02:34:10;;;;;;;;;;;32.60;81.70;;;;;;1916386;73;20544;-93
2021/05/31 02:36:41;;;;;;;;;;;32.60;82.30;;;;;;1913520;73;20267;-91
2021/05/31 02:39:11;;;;;;;;;;;32.70;80.40;;;;;;1917176;73;20208;-93
2021/05/31 02:41:42;;;;;;;;;;;32.80;79.60;;;;;;1877684;76;20274;-92
2021/05/31 02:44:12;;;;;;;;;;;32.80;80.40;;;;;;1874876;76;20172;-93
2021/05/31 02:46:42;;;;;;;;;;;32.80;79.80;;;;;;1915697;73;20134;-89
2021/05/31 02:49:13;;;;;;;;;;;32.80;80.20;;;;;;1864012;76;20168;-89
2021/05/31 02:51:44;;;;;;;;;;;32.90;79.10;;;;;;1869274;76;20299;-89
2021/05/31 02:54:14;;;;;;;;;;;32.90;79.20;;;;;;1878660;75;20275;-89
2021/05/31 02:56:44;;;;;;;;;;;33.00;79.00;;;;;;1905702;73;20182;-91
2021/05/31 02:59:14;;;;;;;;;;;33.10;79.60;;;;;;1911327;75;20178;-93
2021/05/31 03:01:43;;;;;;;;;;;33.30;77.30;;;;;;1899442;74;20199;-92
2021/05/31 03:04:13;;;;;;;;;;;33.30;77.70;;;;;;1912695;74;20254;-90
2021/05/31 03:06:44;;;;;;;;;;;33.30;78.40;;;;;;1886710;74;20215;-89
2021/05/31 03:09:14;;;;;;;;;;;33.30;77.30;;;;;;1877643;74;20174;-89
2021/05/31 03:11:44;;;;;;;;;;;33.50;77.20;;;;;;1874903;76;20186;-89
2021/05/31 03:14:21;;;;;;;;;;;33.60;76.50;;;;;;1871962;76;20170;-90
2021/05/31 03:16:50;;;;;;;;;;;33.60;76.60;;;;;;1865937;76;20124;-89
2021/05/31 03:19:20;;;;;;;;;;;33.60;76.00;;;;;;1889213;75;20190;-89
2021/05/31 03:21:51;;;;;;;;;;;33.70;76.30;;;;;;1872121;75;20169;-89
2021/05/31 03:24:21;;;;;;;;;;;33.70;76.40;;;;;;1852109;76;20218;-89
2021/05/31 03:26:51;;;;;;;;;;;33.70;76.50;;;;;;1917168;74;20163;-89
2021/05/31 03:29:23;;;;;;;;;;;33.60;76.40;;;;;;1909679;74;20228;-88
2021/05/31 03:31:53;;;;;;;;;;;33.60;76.60;;;;;;1910044;74;20130;-89
2021/05/31 03:34:25;;;;;;;;;;;33.70;76.30;;;;;;1861563;77;20219;-89
2021/05/31 03:36:56;;;;;;;;;;;33.70;75.70;;;;;;1853122;76;20173;-89
2021/05/31 03:39:25;;;;;;;;;;;33.70;76.00;;;;;;1875127;75;20121;-89
2021/05/31 03:41:55;;;;;;;;;;;33.70;76.00;;;;;;1874797;76;20392;-88
2021/05/31 03:44:25;;;;;;;;;;;33.80;75.50;;;;;;1907638;73;20221;-88
2021/05/31 03:47:00;;;;;;;;;;;;;;;;;;1868635;76;20193;-91
2021/05/31 03:49:27;;;;;;;;;;;33.90;73.90;;;;;;1850030;77;20720;-88
2021/05/31 03:51:57;;;;;;;;;;;33.90;74.70;;;;;;1902159;74;20189;-88
2021/05/31 03:54:31;;;;;;;;;;;33.90;74.50;;;;;;1854622;76;20253;-90
2021/05/31 03:57:26;;;;;;;;;;;34.00;75.20;;;;;;1896354;74;20141;-87
2021/05/31 03:59:59;;;;;;;;;;;34.10;75.00;;;;;;1902781;75;20161;-88
2021/05/31 04:02:27;;;;;;;;;;;34.20;74.00;;;;;;1912208;74;20160;-87
2021/05/31 04:05:00;;;;;;;;;;;34.10;74.20;;;;;;1905253;74;20261;-87
2021/05/31 04:12:39;;;;;;;;;;;34.10;73.70;;;;;;1910223;74;20136;-85
2021/05/31 04:15:14;;;;;;;;;;;34.10;73.80;;;;;;1900027;74;20266;-87
2021/05/31 04:17:43;;;;;;;;;;;34.10;73.50;;;;;;1841037;77;20309;-89
2021/05/31 04:20:15;;;;;;;;;;;34.10;73.40;;;;;;1811610;77;20210;-89
2021/05/31 04:22:44;;;;;;;;;;;34.20;74.50;;;;;;1866576;76;20124;-89
2021/05/31 04:25:14;;;;;;;;;;;34.30;72.80;;;;;;1859644;76;20402;-89
2021/05/31 04:27:44;;;;;;;;;;;34.30;73.20;;;;;;1865932;76;20260;-89
2021/05/31 04:30:15;;;;;;;;;;;34.40;72.40;;;;;;1879396;76;20149;-89
2021/05/31 04:32:45;;;;;;;;;;;34.40;72.40;;;;;;1880759;75;20132;-88
2021/05/31 04:35:15;;;;;;;;;;;34.50;71.50;;;;;;1886891;75;20584;-90
2021/05/31 04:37:58;;;;;;;;;;;;;;;;;;;;;
2021/05/31 04:40:22;;;;;;;;;;;34.50;71.40;;;;;;1876226;75;20130;-88
2021/05/31 04:42:52;;;;;;;;;;;34.50;72.20;;;;;;1880419;75;20195;-88
2021/05/31 04:45:22;;;;;;;;;;;34.50;71.80;;;;;;1874847;75;20460;-86
2021/05/31 04:47:53;;;;;;;;;;;34.50;72.30;;;;;;1879261;75;20173;-89
2021/05/31 04:50:22;;;;;;;;;;;34.40;71.70;;;;;;1866179;75;20235;-90
2021/05/31 04:52:55;;;;;;;;;;;34.40;72.00;;;;;;1911870;74;20441;-89
2021/05/31 04:55:25;;;;;;;;;;;34.40;71.30;;;;;;1903851;74;20180;-89
2021/05/31 04:57:55;;;;;;;;;;;34.40;71.30;;;;;;1913770;74;20242;-88
2021/05/31 05:00:24;;;;;;;;;;;34.50;71.70;;;;;;1918890;74;20237;-89
2021/05/31 05:02:54;;;;;;;;;;;34.50;71.00;;;;;;1907202;74;20218;-89
2021/05/31 05:05:25;;;;;;;;;;;34.50;70.80;;;;;;1919150;74;20172;-88
2021/05/31 05:07:56;;;;;;;;;;;34.50;69.30;;;;;;1908781;74;20202;-90
2021/05/31 05:10:26;;;;;;;;;;;34.50;70.10;;;;;;1896193;75;20208;-90
2021/05/31 05:12:56;;;;;;;;;;;34.60;70.00;;;;;;1899159;75;20177;-89
2021/05/31 05:15:26;;;;;;;;;;;34.60;70.90;;;;;;1908335;73;20189;-90
2021/05/31 05:17:57;;;;;;;;;;;34.70;70.50;;;;;;1912960;73;20241;-90
2021/05/31 05:20:27;;;;;;;;;;;34.80;70.00;;;;;;1917251;74;20231;-90
2021/05/31 05:22:58;;;;;;;;;;;34.90;69.90;;;;;;1916761;74;20224;-90
2021/05/31 05:25:30;;;;;;;;;;;34.90;67.80;;;;;;1907315;74;20273;-91
2021/05/31 05:28:01;;;;;;;;;;;34.90;67.20;;;;;;1890898;75;20200;-90
2021/05/31 05:30:32;;;;;;;;;;;34.80;67.30;;;;;;1877560;75;20463;-89
2021/05/31 05:33:02;;;;;;;;;;;34.80;68.10;;;;;;1878254;75;20435;-88
2021/05/31 05:35:38;;;;;;;;;;;34.80;68.60;;;;;;1920135;74;20518;-90
2021/05/31 05:48:11;;;;;;;;;;;35.10;67.30;;;;;;1855235;77;20166;-89
2021/05/31 05:50:40;;;;;;;;;;;35.00;67.30;;;;;;1888246;75;20290;-89
2021/05/31 05:53:10;;;;;;;;;;;34.90;67.20;;;;;;1884388;75;20233;-91
2021/05/31 05:55:40;;;;;;;;;;;34.90;66.90;;;;;;1880749;76;20384;-90
2021/05/31 05:58:10;;;;;;;;;;;34.90;67.30;;;;;;1876083;76;20121;-90
2021/05/31 06:00:40;;;;;;;;;;;34.90;67.60;;;;;;1877773;76;20212;-90
2021/05/31 06:03:16;;;;;;;;;;;34.80;67.20;;;;;;1879144;76;20986;-88
2021/05/31 06:06:07;;;;;;;;;;;34.70;67.60;;;;;;1856989;76;20212;-89
2021/05/31 06:08:38;;;;;;;;;;;34.80;68.30;;;;;;1881241;75;20200;-90
2021/05/31 06:11:07;;;;;;;;;;;34.90;68.60;;;;;;1914137;74;20166;-89
2021/05/31 06:13:40;;;;;;;;;;;34.90;66.80;;;;;;1901141;74;20149;-89
2021/05/31 06:16:11;;;;;;;;;;;35.00;67.20;;;;;;1921117;74;20184;-87
2021/05/31 06:18:41;;;;;;;;;;;35.00;66.10;;;;;;1918645;74;20218;-89
2021/05/31 06:21:11;;;;;;;;;;;35.20;65.20;;;;;;1924540;74;20215;-91
2021/05/31 06:23:41;;;;;;;;;;;35.30;65.60;;;;;;1933142;74;20205;-82
2021/05/31 06:26:12;;;;;;;;;;;35.30;64.20;;;;;;1908511;73;20229;-84
2021/05/31 06:28:42;;;;;;;;;;;35.30;65.30;;;;;;1866802;76;20293;-83
2021/05/31 06:31:12;;;;;;;;;;;35.20;66.10;;;;;;1871128;76;20210;-82
2021/05/31 06:33:42;;;;;;;;;;;35.20;67.10;;;;;;1897041;75;20172;-84
2021/05/31 06:36:12;;;;;;;;;;;35.10;66.70;;;;;;1871555;76;20163;-83
2021/05/31 06:38:41;;;;;;;;;;;35.20;66.90;;;;;;1912260;74;20182;-83
2021/05/31 06:41:11;;;;;;;;;;;35.10;67.30;;;;;;1893762;74;20190;-84
2021/05/31 06:43:41;;;;;;;;;;;35.00;67.90;;;;;;1855198;77;20211;-83
2021/05/31 06:46:10;;;;;;;;;;;35.00;67.40;;;;;;1883995;75;20293;-83
2021/05/31 06:48:40;;;;;;;;;;;35.00;66.50;;;;;;1922550;74;20170;-84
2021/05/31 06:51:11;;;;;;;;;;;34.80;66.50;;;;;;1871947;76;20287;-83
2021/05/31 06:53:40;;;;;;;;;;;34.70;67.20;;;;;;1913601;74;20174;-84
2021/05/31 06:56:11;;;;;;;;;;;34.60;67.10;;;;;;1910444;74;20583;-83
2021/05/31 06:58:41;;;;;;;;;;;34.60;67.90;;;;;;1906430;74;20166;-82
2021/05/31 07:01:11;;;;;;;;;;;34.60;67.60;;;;;;1873989;76;20213;-83
2021/05/31 07:03:41;;;;;;;;;;;34.70;66.90;;;;;;1884849;76;20191;-83
2021/05/31 07:06:13;;;;;;;;;;;34.70;66.70;;;;;;1889205;76;20195;-83
2021/05/31 07:08:43;;;;;;;;;;;34.60;66.90;;;;;;1916971;75;20201;-82
2021/05/31 07:11:16;;;;;;;;;;;34.60;67.00;;;;;;1912267;74;20210;-83
2021/05/31 07:13:46;;;;;;;;;;;34.70;66.60;;;;;;1863901;76;20188;-83
2021/05/31 07:16:16;;;;;;;;;;;34.70;66.80;;;;;;1906338;74;20264;-85
2021/05/31 07:18:47;;;;;;;;;;;34.80;67.20;;;;;;1890630;76;20215;-86
2021/05/31 07:21:18;;;;;;;;;;;34.80;65.70;;;;;;1881157;76;20238;-86
2021/05/31 07:23:48;;;;;;;;;;;34.90;66.30;;;;;;1887750;76;20155;-86
2021/05/31 07:26:18;;;;;;;;;;;34.90;65.20;;;;;;1911245;74;20190;-87
2021/05/31 07:28:48;;;;;;;;;;;35.00;65.60;;;;;;1913269;74;20467;-86
2021/05/31 07:31:17;;;;;;;;;;;35.00;64.50;;;;;;1913749;74;20200;-87
2021/05/31 07:33:48;;;;;;;;;;;35.00;65.20;;;;;;1919021;74;20173;-86
2021/05/31 07:36:17;;;;;;;;;;;35.00;65.00;;;;;;1917400;75;20165;-87
2021/05/31 07:38:50;;;;;;;;;;;35.10;65.00;;;;;;1911759;74;20185;-86
2021/05/31 07:41:19;;;;;;;;;;;35.10;64.70;;;;;;1911497;74;20171;-87
2021/05/31 07:43:49;;;;;;;;;;;35.10;63.80;;;;;;1903671;74;20249;-87
2021/05/31 07:46:19;;;;;;;;;;;35.10;64.00;;;;;;1914478;74;20825;-84
2021/05/31 07:48:51;;;;;;;;;;;35.10;64.30;;;;;;1915367;74;20126;-86
2021/05/31 07:51:21;;;;;;;;;;;35.10;64.50;;;;;;1885312;75;20309;-86
2021/05/31 07:53:52;;;;;;;;;;;35.20;64.20;;;;;;1887359;76;20206;-86
2021/05/31 07:56:26;;;;;;;;;;;35.20;63.70;;;;;;1919195;74;20130;-85
2021/05/31 07:59:03;;;;;;;;;;;35.20;63.80;;;;;;1898123;74;20242;-86
2021/05/31 08:01:35;;;;;;;;;;;35.10;63.20;;;;;;1922430;74;20227;-86
2021/05/31 08:04:06;;;;;;;;;;;35.10;63.90;;;;;;1925866;74;20177;-87
2021/05/31 08:06:37;;;;;;;;;;;35.00;63.80;;;;;;1927125;74;20271;-86
2021/05/31 08:09:06;;;;;;;;;;;34.90;63.80;;;;;;1923003;74;20268;-87
2021/05/31 08:11:36;;;;;;;;;;;34.90;64.00;;;;;;1924884;74;20178;-87
2021/05/31 08:14:07;;;;;;;;;;;34.90;63.50;;;;;;1924631;74;20252;-86
2021/05/31 08:16:36;;;;;;;;;;;34.90;65.00;;;;;;1926833;74;20251;-86
2021/05/31 08:19:07;;;;;;;;;;;35.00;64.20;;;;;;1910856;75;20118;-87
2021/05/31 08:21:42;;;;;;;;;;;35.00;63.80;;;;;;1895204;74;20176;-86
2021/05/31 08:24:19;;;;;;;;;;;35.00;63.80;;;;;;1890903;75;20123;-87
2021/05/31 08:26:51;;;;;;;;;;;35.00;64.30;;;;;;1925901;74;20242;-86
2021/05/31 08:32:22;;;;;;;;;;;35.00;63.90;;;;;;1830359;77;20586;-86
2021/05/31 08:35:01;;;;;;;;;;;35.00;63.70;;;;;;1864026;76;20232;-86
2021/05/31 08:37:37;;;;;;;;;;;35.00;64.60;;;;;;1824825;77;20755;-87
2021/05/31 08:40:16;;;;;;;;;;;34.90;64.10;;;;;;1867164;76;20218;-85
2021/05/31 08:42:46;;;;;;;;;;;34.90;63.90;;;;;;1831635;77;20567;-87
2021/05/31 08:45:17;;;;;;;;;;;34.90;64.10;;;;;;1838367;76;20200;-85
2021/05/31 08:47:49;;;;;;;;;;;34.90;63.90;;;;;;1899331;75;20256;-84
2021/05/31 08:50:20;;;;;;;;;;;34.90;64.10;;;;;;1901805;75;20528;-85
2021/05/31 08:52:53;;;;;;;;;;;34.90;64.30;;;;;;1892575;74;20185;-84
2021/05/31 08:55:25;;;;;;;;;;;35.00;63.90;;;;;;1888790;74;20253;-85
2021/05/31 08:57:55;;;;;;;;;;;35.00;64.00;;;;;;1887782;74;20243;-85
2021/05/31 09:00:26;;;;;;;;;;;35.00;63.30;;;;;;1886889;74;20263;-86
2021/05/31 09:02:57;;;;;;;;;;;35.00;63.20;;;;;;1892275;74;20200;-84
2021/05/31 09:05:28;;;;;;;;;;;34.90;63.90;;;;;;1880798;74;20590;-85
2021/05/31 09:08:02;;;;;;;;;;;34.90;64.10;;;;;;1884262;74;20891;-85
2021/05/31 09:10:36;;;;;;;;;;;34.80;63.40;;;;;;1875523;76;20225;-85
2021/05/31 09:13:06;;;;;;;;;;;34.80;63.60;;;;;;1871694;76;20187;-86
2021/05/31 09:15:36;;;;;;;;;;;34.80;64.10;;;;;;1874388;75;20204;-86
2021/05/31 09:18:06;;;;;;;;;;;34.70;63.70;;;;;;1888720;76;20226;-86
2021/05/31 09:20:36;;;;;;;;;;;34.70;63.40;;;;;;1890721;76;20620;-88
2021/05/31 09:23:07;;;;;;;;;;;34.70;63.00;;;;;;1887691;76;20201;-85
2021/05/31 09:25:36;;;;;;;;;;;34.70;63.50;;;;;;1888375;76;20585;-85
2021/05/31 09:28:07;;;;;;;;;;;34.80;63.10;;;;;;1890825;76;20478;-86
2021/05/31 09:30:38;;;;;;;;;;;34.70;64.00;;;;;;1947760;73;20182;-86
2021/05/31 09:33:16;;;;;;;;;;;34.80;63.30;;;;;;1943776;73;20557;-85
2021/05/31 09:35:46;;;;;;;;;;;34.70;63.40;;;;;;1948742;73;20197;-85
2021/05/31 09:38:16;;;;;;;;;;;34.70;63.60;;;;;;1948544;73;20188;-87
2021/05/31 09:40:50;;;;;;;;;;;34.60;64.00;;;;;;1943450;73;20279;-86
2021/05/31 09:43:25;;;;;;;;;;;34.60;63.50;;;;;;1949986;73;20159;-86
2021/05/31 09:45:55;;;;;;;;;;;34.60;63.90;;;;;;1945216;73;20220;-85
2021/05/31 09:48:26;;;;;;;;;;;34.60;64.10;;;;;;1944563;73;20215;-85
2021/05/31 09:51:01;;;;;;;;;;;34.60;64.10;;;;;;1947310;73;20238;-85
2021/05/31 09:53:29;;;;;;;;;;;34.60;63.80;;;;;;1942811;73;20226;-85
2021/05/31 09:55:59;;;;;;;;;;;34.60;63.70;;;;;;1921264;74;20264;-86
2021/05/31 09:58:30;;;;;;;;;;;34.60;63.90;;;;;;1922524;73;20302;-85
2021/05/31 10:01:00;;;;;;;;;;;34.50;64.00;;;;;;1918849;73;20201;-85
2021/05/31 10:06:34;;;;;;;;;;;34.50;63.90;;;;;;1925329;74;20578;-87
2021/05/31 10:11:05;;;;;;;;;;;34.50;64.60;;;;;;1922725;73;20152;-87
2021/05/31 10:13:35;;;;;;;;;;;34.50;64.40;;;;;;1918979;73;20203;-88
2021/05/31 10:16:06;;;;;;;;;;;34.50;64.20;;;;;;1918890;73;20210;-80
2021/05/31 10:18:37;;;;;;;;;;;34.40;64.20;;;;;;1920069;73;20204;-82
2021/05/31 10:21:08;;;;;;;;;;;34.40;64.40;;;;;;1925485;73;20464;-83
2021/05/31 10:23:37;;;;;;;;;;;34.40;64.50;;;;;;1918389;73;20215;-81
2021/05/31 10:26:10;;;;;;;;;;;34.40;63.90;;;;;;1922187;73;20220;-83
2021/05/31 10:28:40;;;;;;;;;;;34.40;64.20;;;;;;1923564;74;20215;-85
2021/05/31 10:31:11;;;;;;;;;;;34.40;64.60;;;;;;1922596;74;20259;-84
2021/05/31 10:33:41;;;;;;;;;;;34.30;65.10;;;;;;1915618;73;20210;-83
2021/05/31 10:36:12;;;;;;;;;;;34.30;66.50;;;;;;1925273;73;20752;-85
2021/05/31 10:38:44;;;;;;;;;;;34.30;65.40;;;;;;1918694;73;20220;-85
2021/05/31 10:41:15;;;;;;;;;;;34.30;65.30;;;;;;1926800;73;20184;-82
2021/05/31 10:43:46;;;;;;;;;;;34.20;65.40;;;;;;1920015;73;20284;-82
2021/05/31 10:46:17;;;;;;;;;;;34.10;65.60;;;;;;1924312;73;20196;-81
2021/05/31 10:48:50;;;;;;;;;;;34.20;65.90;;;;;;1923101;73;20185;-83
2021/05/31 10:51:21;;;;;;;;;;;34.20;66.00;;;;;;1928429;73;20246;-83
2021/05/31 10:53:51;;;;;;;;;;;34.10;66.10;;;;;;1941276;73;20229;-83
2021/05/31 10:56:22;;;;;;;;;;;34.10;65.90;;;;;;1961156;73;20237;-83
2021/05/31 10:58:53;;;;;;;;;;;34.10;65.40;;;;;;1965849;72;20225;-83
2021/05/31 11:01:24;;;;;;;;;;;34.00;65.30;;;;;;1952851;73;20151;-84
2021/05/31 11:04:02;;;;;;;;;;;34.00;65.50;;;;;;1958007;73;20370;-83
2021/05/31 11:06:28;;;;;;;;;;;34.00;65.80;;;;;;1960297;73;20167;-83
2021/05/31 11:08:58;;;;;;;;;;;34.00;66.20;;;;;;1961305;73;20441;-84
2021/05/31 11:11:29;;;;;;;;;;;34.00;66.10;;;;;;1966859;73;20241;-84
2021/05/31 11:14:00;;;;;;;;;;;33.90;66.20;;;;;;1967803;73;20210;-83
2021/05/31 11:16:31;;;;;;;;;;;33.90;66.20;;;;;;1966034;73;20307;-83
2021/05/31 11:19:03;;;;;;;;;;;33.80;65.90;;;;;;1964246;73;20173;-83
2021/05/31 11:21:34;;;;;;;;;;;33.80;66.10;;;;;;1967143;73;20465;-82
2021/05/31 11:24:05;;;;;;;;;;;33.80;66.30;;;;;;1961039;73;20187;-82
2021/05/31 11:26:36;;;;;;;;;;;33.80;66.60;;;;;;1968971;73;20229;-83
2021/05/31 11:29:07;;;;;;;;;;;33.70;66.50;;;;;;1956921;73;20190;-83
2021/05/31 11:31:38;;;;;;;;;;;33.70;66.70;;;;;;1930261;74;20130;-84
2021/05/31 11:34:08;;;;;;;;;;;33.70;66.80;;;;;;1910908;74;20261;-84
2021/05/31 11:36:39;;;;;;;;;;;33.70;67.80;;;;;;1925792;74;20172;-83
2021/05/31 11:39:10;;;;;;;;;;;33.70;66.90;;;;;;1926774;74;20209;-84
2021/05/31 11:41:41;;;;;;;;;;;33.60;66.70;;;;;;1929318;74;20181;-83
2021/05/31 11:44:12;;;;;;;;;;;33.60;66.80;;;;;;1933884;74;20161;-84
2021/05/31 11:46:43;;;;;;;;;;;33.60;66.90;;;;;;1935932;74;20330;-84
2021/05/31 11:49:13;;;;;;;;;;;33.50;67.10;;;;;;1928460;74;20150;-83
2021/05/31 11:51:43;;;;;;;;;;;33.50;67.30;;;;;;1929241;74;20413;-84
2021/05/31 11:54:14;;;;;;;;;;;33.50;67.30;;;;;;1928955;74;20118;-84
2021/05/31 11:56:44;;;;;;;;;;;33.40;67.40;;;;;;1925228;74;20220;-83
2021/05/31 11:59:14;;;;;;;;;;;33.40;67.60;;;;;;1927179;74;20214;-84
2021/05/31 12:01:45;;;;;;;;;;;33.40;67.70;;;;;;1921305;74;20184;-84
2021/05/31 12:04:15;;;;;;;;;;;33.40;67.80;;;;;;1924606;74;20224;-84
2021/05/31 12:06:47;;;;;;;;;;;33.40;68.10;;;;;;1925823;74;20189;-84
2021/05/31 12:09:17;;;;;;;;;;;33.30;68.10;;;;;;1927753;74;20262;-83
2021/05/31 12:11:47;;;;;;;;;;;33.30;68.30;;;;;;1928794;74;20172;-84
2021/05/31 12:14:22;;;;;;;;;;;33.30;68.30;;;;;;1922735;74;20197;-85
2021/05/31 12:16:51;;;;;;;;;;;33.30;68.30;;;;;;1917242;74;20186;-84
2021/05/31 12:19:21;;;;;;;;;;;33.20;68.40;;;;;;1926987;74;20130;-84
2021/05/31 12:21:51;;;;;;;;;;;33.20;68.50;;;;;;1928553;74;20158;-83
2021/05/31 12:24:23;;;;;;;;;;;33.20;68.40;;;;;;1877611;76;20457;-83
2021/05/31 12:26:53;;;;;;;;;;;33.20;68.50;;;;;;1961412;73;20135;-83
2021/05/31 12:29:25;;;;;;;;;;;33.20;68.50;;;;;;1960157;73;20213;-84
2021/05/31 12:31:55;;;;;;;;;;;33.20;68.30;;;;;;1964642;73;20173;-84
2021/05/31 12:34:28;;;;;;;;;;;33.10;68.30;;;;;;1966160;72;20236;-84
2021/05/31 12:37:07;;;;;;;;;;;33.10;68.50;;;;;;1964183;72;20174;-85
2021/05/31 12:39:38;;;;;;;;;;;33.10;68.40;;;;;;1965295;72;20262;-84
2021/05/31 12:42:08;;;;;;;;;;;33.10;68.50;;;;;;1954838;73;20229;-83
2021/05/31 12:44:42;;;;;;;;;;;33.00;68.60;;;;;;1966611;72;20498;-84
2021/05/31 12:47:11;;;;;;;;;;;33.10;68.60;;;;;;1955512;72;20476;-83
2021/05/31 12:49:43;;;;;;;;;;;33.00;68.60;;;;;;1962537;72;20167;-83
2021/05/31 12:52:13;;;;;;;;;;;33.00;68.70;;;;;;1963709;72;20848;-84
2021/05/31 12:54:43;;;;;;;;;;;33.00;68.90;;;;;;1948994;72;20280;-84
2021/05/31 12:57:15;;;;;;;;;;;33.00;68.90;;;;;;1954941;72;20173;-82
2021/05/31 12:59:46;;;;;;;;;;;32.90;68.80;;;;;;1965697;73;20233;-83
2021/05/31 13:02:17;;;;;;;;;;;32.90;68.80;;;;;;1948102;72;20425;-84
2021/05/31 13:04:48;;;;;;;;;;;32.90;68.90;;;;;;1960639;72;20172;-83
2021/05/31 13:07:18;;;;;;;;;;;32.90;68.90;;;;;;1953242;72;20573;-83
2021/05/31 13:09:48;;;;;;;;;;;32.90;69.00;;;;;;1950855;72;20454;-85
2021/05/31 13:12:21;;;;;;;;;;;32.90;69.20;;;;;;1954747;72;20171;-84
2021/05/31 13:14:52;;;;;;;;;;;32.90;69.50;;;;;;1955397;72;20213;-84
2021/05/31 13:17:23;;;;;;;;;;;32.90;69.60;;;;;;1963234;73;20254;-85
2021/05/31 13:19:53;;;;;;;;;;;32.80;69.20;;;;;;1890935;74;20138;-84
2021/05/31 13:22:23;;;;;;;;;;;32.70;69.40;;;;;;1889762;75;20210;-83
2021/05/31 13:24:54;;;;;;;;;;;32.70;69.70;;;;;;1891614;75;20149;-84
2021/05/31 13:27:30;;;;;;;;;;;32.70;70.00;;;;;;1871890;74;20189;-87
2021/05/31 13:29:59;;;;;;;;;;;32.70;70.10;;;;;;1885278;74;20222;-84
2021/05/31 13:32:29;;;;;;;;;;;32.70;70.30;;;;;;1888389;74;20191;-92
2021/05/31 13:35:03;;;;;;;;;;;32.70;70.40;;;;;;1890627;75;20246;-91
2021/05/31 13:37:35;;;;;;;;;;;32.70;70.60;;;;;;1917781;74;20246;-92
2021/05/31 13:40:08;;;;;;;;;;;32.60;70.60;;;;;;1920628;74;20122;-90
2021/05/31 13:42:39;;;;;;;;;;;32.60;70.80;;;;;;1920999;74;20133;-90
2021/05/31 13:45:12;;;;;;;;;;;32.60;70.80;;;;;;1895393;74;20256;-91
2021/05/31 13:47:42;;;;;;;;;;;32.50;71.10;;;;;;1923568;73;20545;-90
2021/05/31 13:50:14;;;;;;;;;;;32.60;71.20;;;;;;1914872;73;20217;-92
2021/05/31 13:52:44;;;;;;;;;;;32.50;71.20;;;;;;1908262;74;20209;-89
2021/05/31 13:55:14;;;;;;;;;;;32.50;71.40;;;;;;1913622;73;20231;-90
2021/05/31 13:57:47;;;;;;;;;;;32.50;71.20;;;;;;1902909;75;20512;-91
2021/05/31 14:00:16;;;;;;;;;;;32.50;71.60;;;;;;1874865;75;20148;-89
2021/05/31 14:02:47;;;;;;;;;;;32.40;71.60;;;;;;1882635;75;20248;-91
2021/05/31 14:05:17;;;;;;;;;;;32.40;71.80;;;;;;1903517;73;20521;-90
2021/05/31 14:07:47;;;;;;;;;;;32.40;72.20;;;;;;1905855;74;20249;-91
2021/05/31 14:10:17;;;;;;;;;;;32.40;72.50;;;;;;1873083;75;20247;-90
2021/05/31 14:12:48;;;;;;;;;;;32.40;73.60;;;;;;1907468;75;20487;-91
2021/05/31 14:15:18;;;;;;;;;;;32.30;72.80;;;;;;1883262;75;20931;-88
2021/05/31 14:17:49;;;;;;;;;;;32.30;73.10;;;;;;1880519;75;20224;-91
2021/05/31 14:20:26;;;;;;;;;;;32.30;73.20;;;;;;1875319;75;20163;-92
2021/05/31 14:22:59;;;;;;;;;;;32.30;73.30;;;;;;1871613;75;20207;-92
2021/05/31 14:25:32;;;;;;;;;;;32.20;73.40;;;;;;1876872;75;20263;-91
2021/05/31 14:28:02;;;;;;;;;;;32.20;73.50;;;;;;1883067;75;20207;-90
2021/05/31 14:30:35;;;;;;;;;;;32.20;73.60;;;;;;1899311;74;20569;-92
2021/05/31 14:33:08;;;;;;;;;;;32.20;73.70;;;;;;1885054;75;20466;-91
2021/05/31 14:35:39;;;;;;;;;;;32.20;74.10;;;;;;1872769;75;20205;-90
2021/05/31 14:38:11;;;;;;;;;;;32.10;74.20;;;;;;1878949;75;20644;-92
2021/05/31 14:40:44;;;;;;;;;;;32.10;74.10;;;;;;1905421;73;20244;-92
2021/05/31 14:43:14;;;;;;;;;;;32.00;73.90;;;;;;1916539;75;20212;-92
2021/05/31 14:45:44;;;;;;;;;;;32.00;74.20;;;;;;1898248;75;20605;-92
2021/05/31 14:48:15;;;;;;;;;;;32.00;74.60;;;;;;1882770;76;20230;-91
2021/05/31 14:50:48;;;;;;;;;;;31.90;74.90;;;;;;1916920;75;20177;-91
2021/05/31 14:53:17;;;;;;;;;;;31.90;74.80;;;;;;1881212;75;20498;-92
2021/05/31 14:55:47;;;;;;;;;;;31.90;74.90;;;;;;1886302;75;20484;-92
2021/05/31 14:58:25;;;;;;;;;;;31.90;75.10;;;;;;1884942;76;20212;-90
2021/05/31 15:00:52;;;;;;;;;;;31.80;75.20;;;;;;1908165;75;20336;-90
2021/05/31 15:03:29;;;;;;;;;;;31.80;75.30;;;;;;1909346;75;20165;-91
2021/05/31 15:05:59;;;;;;;;;;;31.80;75.50;;;;;;1923847;74;20136;-91